Airfield :
LOGIN :

Register | Disclaimer

   EN    FR    IT 

 










Legend :    VFR   Marginal VFR   IFR   Intensive IFR   Very Intensive IFR
Visi :
Ceiling :
>= 8 km
>= 3000ft
5 to 8 km
1000 to 3000 ft
1500m to 5 km
500 to 1000 ft
800 to 1500m
200 to 500 ft
< 800m
< 200 ft
Symbols :   Thunderstorms  Fog  Heavy snow  Heavy precipitations  Wind > 20 kt
SIGMETs :     Misc.  Thunderstorms  Icing  Turbulence  Mountain Waves  Volcanic Ashes






- Airport Elevation : 76 ft
- IATA code : KID


ESMK - Kristianstad

CURRENT METAR :
  • 280720Z 06004KT 030V110 CAVOK 15/07 Q1030

EXPIRED METARs :
  • 280650Z 03003KT 330V080 CAVOK 14/07 Q1030
  • 280620Z 01003KT 330V060 CAVOK 13/07 Q1030
  • 280550Z AUTO 35004KT 320V050 9999 NCD 13/06 Q1030
  • 280520Z AUTO 33006KT 9999 NCD 12/06 Q1030
  • 280450Z AUTO 31004KT 290V350 9999 NCD 11/07 Q1029

TAF AMD TAF ESMK
Valid from the 28 at 07:00 until the 28 at 15:00 UTC


280730Z 2807/2815 30010KT 9999 FEW040



MET'MAP, your aeronautical weather chart ! - Copyright ORBIFLY December 2007 - Disclaimer

ORBIFLY MET'MAP TEAM :

Programming & Development : Alexandra Zaïnal
Concept & original design : Baudouin d'Aumeries
Assistance for programming : Marc-Olivier Méhu
Technical & hardware support : Manuel Goepfert

Contact : metmap@orbifly.com




SOURCES & CREDITS :

   NOAA